createdAt,value
2022-11-15T00:01:18.014Z,3.47
2022-11-15T00:03:46.283Z,3.28
2022-11-15T00:06:14.540Z,4.10
2022-11-15T00:08:44.071Z,3.30
2022-11-15T00:11:14.404Z,3.03
2022-11-15T00:13:42.628Z,4.78
2022-11-15T00:16:11.680Z,3.05
2022-11-15T00:18:40.225Z,3.63
2022-11-15T00:21:09.990Z,3.10
2022-11-15T00:23:38.626Z,3.10
2022-11-15T00:26:08.889Z,5.20
2022-11-15T00:28:36.961Z,2.92
2022-11-15T00:31:06.782Z,3.80
2022-11-15T00:33:35.523Z,3.30
2022-11-15T00:36:05.494Z,3.95
2022-11-15T00:41:08.878Z,3.50
2022-11-15T00:43:40.820Z,2.97
2022-11-15T00:46:10.775Z,3.05
2022-11-15T00:48:39.018Z,4.00
2022-11-15T00:51:07.391Z,2.90
2022-11-15T00:53:35.651Z,3.47
2022-11-15T00:56:08.162Z,3.30
2022-11-15T00:58:36.340Z,3.10
2022-11-15T01:01:14.083Z,3.03
2022-11-15T01:03:43.253Z,2.90
2022-11-15T01:06:12.727Z,3.30
2022-11-15T01:08:41.407Z,2.95
2022-11-15T01:11:11.431Z,3.22
2022-11-15T01:16:12.008Z,3.40
2022-11-15T01:18:40.438Z,2.42
2022-11-15T01:21:10.110Z,3.20
2022-11-15T01:23:38.751Z,2.70
2022-11-15T01:26:09.003Z,3.60
2022-11-15T01:28:39.576Z,2.92
2022-11-15T01:31:10.954Z,2.55
2022-11-15T01:33:40.478Z,3.17
2022-11-15T01:36:10.658Z,2.58
2022-11-15T01:38:38.822Z,3.33
2022-11-15T01:41:07.477Z,2.95
2022-11-15T01:43:37.944Z,2.92
2022-11-15T01:46:17.878Z,3.47
2022-11-15T01:48:47.531Z,5.38
2022-11-15T01:51:17.929Z,5.60
2022-11-15T01:53:49.694Z,5.13
2022-11-15T01:56:22.201Z,10.35
2022-11-15T01:58:50.361Z,3.70
2022-11-15T02:01:18.546Z,3.00
2022-11-15T02:03:52.923Z,4.40
2022-11-15T02:06:22.316Z,4.78
2022-11-15T02:08:51.035Z,5.30
2022-11-15T02:11:19.129Z,3.63
2022-11-15T02:13:47.615Z,3.50
2022-11-15T02:16:24.467Z,3.38
2022-11-15T02:19:01.922Z,3.20
2022-11-15T02:21:37.709Z,3.17
2022-11-15T02:24:34.882Z,3.85
2022-11-15T02:27:40.978Z,6.13
2022-11-15T02:30:24.538Z,3.47
2022-11-15T02:32:56.817Z,4.55
2022-11-15T02:35:32.150Z,3.35
2022-11-15T02:38:07.208Z,3.13
2022-11-15T02:40:42.801Z,3.33
2022-11-15T02:43:31.006Z,3.38
2022-11-15T02:46:09.193Z,3.97
2022-11-15T02:48:38.257Z,3.22
2022-11-15T02:51:06.909Z,6.93
2022-11-15T02:53:35.039Z,4.30
2022-11-15T02:56:03.355Z,3.65
2022-11-15T02:58:50.593Z,3.70
2022-11-15T03:01:30.778Z,3.67
2022-11-15T03:04:10.277Z,3.88
2022-11-15T03:06:44.350Z,5.45
2022-11-15T03:09:23.751Z,2.47
2022-11-15T03:11:58.118Z,3.00
2022-11-15T03:14:31.633Z,3.20
2022-11-15T03:17:07.338Z,3.38
2022-11-15T03:19:40.092Z,2.70
2022-11-15T03:22:11.087Z,3.22
2022-11-15T03:24:40.436Z,5.35
2022-11-15T03:27:11.834Z,2.88
2022-11-15T03:29:43.804Z,3.65
2022-11-15T03:32:17.890Z,3.10
2022-11-15T03:34:52.157Z,2.70
2022-11-15T03:37:26.615Z,2.63
2022-11-15T03:39:54.705Z,2.60
2022-11-15T03:42:29.341Z,3.00
2022-11-15T03:45:04.920Z,2.90
2022-11-15T03:47:38.479Z,2.85
2022-11-15T03:50:11.299Z,2.97
2022-11-15T03:52:39.441Z,2.85
2022-11-15T03:55:10.840Z,2.55
2022-11-15T03:57:39.175Z,2.65
2022-11-15T04:00:08.242Z,3.35
2022-11-15T04:02:37.760Z,3.45
2022-11-15T04:05:06.308Z,2.30
2022-11-15T04:07:34.473Z,2.65
2022-11-15T04:10:06.406Z,2.97
2022-11-15T04:12:37.006Z,4.07
2022-11-15T04:15:11.182Z,3.00
2022-11-15T04:17:42.471Z,4.13
2022-11-15T04:20:32.644Z,2.50
2022-11-15T04:23:19.646Z,3.28
2022-11-15T04:25:48.527Z,3.80
2022-11-15T04:28:16.584Z,3.10
2022-11-15T04:30:44.643Z,2.40
2022-11-15T04:33:14.181Z,2.83
2022-11-15T04:35:43.631Z,3.00
2022-11-15T04:38:11.914Z,2.30
2022-11-15T04:40:40.666Z,2.67
2022-11-15T04:43:08.737Z,2.85
2022-11-15T04:45:36.793Z,3.28
2022-11-15T04:48:05.087Z,2.72
2022-11-15T04:50:34.526Z,2.50
2022-11-15T04:53:02.621Z,3.42
2022-11-15T04:55:30.703Z,2.60
2022-11-15T04:58:01.975Z,3.35
2022-11-15T05:00:31.069Z,4.00
2022-11-15T05:03:17.035Z,3.38
2022-11-15T05:05:46.470Z,2.40
2022-11-15T05:08:14.543Z,3.72
2022-11-15T05:10:42.642Z,3.00
2022-11-15T05:13:10.733Z,2.47
2022-11-15T05:15:38.807Z,3.13
2022-11-15T05:18:06.956Z,2.60
2022-11-15T05:20:35.159Z,2.65
2022-11-15T05:23:04.662Z,4.68
2022-11-15T05:25:32.849Z,3.45
2022-11-15T05:28:00.921Z,4.20
2022-11-15T05:30:28.980Z,4.03
2022-11-15T05:32:57.365Z,2.70
2022-11-15T05:35:32.652Z,3.42
2022-11-15T05:38:00.865Z,4.57
2022-11-15T05:40:32.479Z,2.40
2022-11-15T05:43:04.265Z,3.38
2022-11-15T05:45:33.410Z,3.00
2022-11-15T05:48:06.844Z,3.73
2022-11-15T05:50:35.625Z,4.63
2022-11-15T05:53:05.423Z,11.35
2022-11-15T05:55:35.267Z,9.60
2022-11-15T05:58:03.610Z,8.07
2022-11-15T06:00:31.776Z,6.60
2022-11-15T06:02:59.878Z,6.38
2022-11-15T06:05:27.965Z,8.02
2022-11-15T06:07:59.896Z,8.40
2022-11-15T06:10:28.037Z,5.60
2022-11-15T06:13:01.085Z,6.18
2022-11-15T06:15:29.242Z,6.10
2022-11-15T06:17:59.463Z,6.95
2022-11-15T06:20:28.007Z,5.70
2022-11-15T06:22:59.926Z,10.73
2022-11-15T06:25:28.114Z,8.50
2022-11-15T06:27:57.438Z,8.15
2022-11-15T06:30:28.223Z,7.50
2022-11-15T06:33:02.576Z,8.38
2022-11-15T06:35:31.335Z,8.13
2022-11-15T06:38:05.119Z,9.85
2022-11-15T06:40:35.626Z,7.82
2022-11-15T06:43:04.291Z,7.10
2022-11-15T06:45:33.920Z,8.98
2022-11-15T06:48:02.048Z,7.60
2022-11-15T06:50:30.211Z,7.93
2022-11-15T06:53:03.289Z,9.15
2022-11-15T06:55:31.654Z,7.95
2022-11-15T06:57:59.769Z,7.13
2022-11-15T07:00:27.851Z,6.80
2022-11-15T07:02:57.336Z,7.63
2022-11-15T07:05:25.432Z,7.28
2022-11-15T07:07:55.307Z,6.03
2022-11-15T07:10:25.179Z,7.80
2022-11-15T07:12:53.910Z,6.75
2022-11-15T07:15:26.160Z,6.93
2022-11-15T07:17:54.518Z,6.50
2022-11-15T07:20:23.999Z,6.20
2022-11-15T07:22:52.121Z,7.65
2022-11-15T07:25:20.213Z,6.57
2022-11-15T07:27:56.942Z,5.32
2022-11-15T07:30:25.498Z,5.00
2022-11-15T07:32:55.672Z,5.65
2022-11-15T07:35:25.603Z,6.90
2022-11-15T07:37:58.022Z,5.32
2022-11-15T07:40:26.940Z,6.20
2022-11-15T07:42:55.123Z,4.53
2022-11-15T07:45:23.975Z,6.50
2022-11-15T07:47:52.561Z,5.53
2022-11-15T07:50:21.079Z,5.72
2022-11-15T07:52:55.158Z,6.03
2022-11-15T07:55:23.463Z,4.57
2022-11-15T07:57:51.598Z,6.65
2022-11-15T08:00:20.663Z,5.35
2022-11-15T08:02:48.916Z,4.75
2022-11-15T08:05:17.174Z,6.97
2022-11-15T08:07:45.302Z,6.00
2022-11-15T08:10:14.929Z,8.02
2022-11-15T08:12:43.104Z,4.38
2022-11-15T08:15:11.990Z,6.60
2022-11-15T08:17:40.085Z,6.65
2022-11-15T08:20:09.485Z,5.63
2022-11-15T08:22:37.715Z,4.97
2022-11-15T08:25:06.385Z,5.55
2022-11-15T08:27:35.919Z,5.22
2022-11-15T08:30:04.428Z,7.15
2022-11-15T08:32:33.470Z,6.20
2022-11-15T08:35:01.559Z,4.35
2022-11-15T08:37:29.976Z,6.20
2022-11-15T08:39:58.069Z,3.75
2022-11-15T08:42:26.176Z,4.60
2022-11-15T08:44:55.625Z,5.60
2022-11-15T08:47:23.769Z,3.70
2022-11-15T08:49:51.910Z,4.25
2022-11-15T08:52:20.082Z,5.45
2022-11-15T08:54:48.412Z,4.70
2022-11-15T08:57:16.725Z,4.20
2022-11-15T08:59:44.931Z,4.95
2022-11-15T09:02:16.247Z,4.85
2022-11-15T09:04:45.035Z,2.80
2022-11-15T09:07:14.049Z,3.60
2022-11-15T09:09:42.424Z,3.85
2022-11-15T09:12:10.918Z,3.58
2022-11-15T09:14:39.192Z,3.90
2022-11-15T09:17:10.567Z,4.03
2022-11-15T09:19:40.034Z,2.72
2022-11-15T09:22:08.880Z,3.03
2022-11-15T09:24:37.576Z,3.75
2022-11-15T09:27:05.763Z,2.67
2022-11-15T09:29:33.882Z,2.50
2022-11-15T09:32:02.006Z,4.03
2022-11-15T09:34:30.087Z,3.85
2022-11-15T09:36:59.562Z,7.18
2022-11-15T09:39:27.644Z,2.45
2022-11-15T09:42:20.266Z,4.13
2022-11-15T09:45:06.598Z,3.45
2022-11-15T09:48:12.766Z,2.97
2022-11-15T09:50:47.828Z,3.13
2022-11-15T09:53:41.548Z,3.22
2022-11-15T09:56:17.852Z,3.35
2022-11-15T09:58:54.047Z,2.83
2022-11-15T10:01:38.971Z,2.90
2022-11-15T10:04:10.767Z,2.38
2022-11-15T10:06:44.659Z,3.10
2022-11-15T10:09:22.819Z,2.63
2022-11-15T10:11:52.345Z,1.70
2022-11-15T10:14:23.325Z,2.20
2022-11-15T10:17:46.345Z,2.30
2022-11-15T10:20:21.888Z,1.90
2022-11-15T10:22:52.701Z,1.92
2022-11-15T10:25:25.042Z,1.83
2022-11-15T10:27:57.063Z,1.70
2022-11-15T10:30:31.895Z,2.22
2022-11-15T10:33:00.003Z,2.95
2022-11-15T10:35:31.619Z,2.63
2022-11-15T10:38:08.513Z,1.90
2022-11-15T10:40:39.229Z,1.85
2022-11-15T10:43:15.897Z,1.67
2022-11-15T10:45:44.945Z,2.05
2022-11-15T10:48:27.349Z,1.80
2022-11-15T10:50:56.673Z,2.47
2022-11-15T10:53:38.341Z,1.63
2022-11-15T10:56:10.482Z,2.35
2022-11-15T10:58:42.333Z,1.85
2022-11-15T11:01:16.908Z,1.83
2022-11-15T11:03:46.700Z,2.58
2022-11-15T11:06:16.835Z,1.40
2022-11-15T11:08:57.716Z,1.13
2022-11-15T11:11:27.653Z,2.03
2022-11-15T11:13:56.313Z,1.30
2022-11-15T11:16:50.638Z,1.88
2022-11-15T11:20:00.200Z,2.25
2022-11-15T11:25:13.395Z,1.52
2022-11-15T11:27:56.970Z,2.28
2022-11-15T11:30:36.453Z,1.67
2022-11-15T11:35:45.981Z,1.02
2022-11-15T11:38:25.719Z,1.05
2022-11-15T11:41:04.843Z,1.30
2022-11-15T11:43:43.626Z,1.98
2022-11-15T11:46:25.640Z,0.90
2022-11-15T11:48:59.283Z,1.55
2022-11-15T11:51:31.605Z,1.30
2022-11-15T11:54:04.311Z,1.25
2022-11-15T11:56:35.993Z,1.20
2022-11-15T11:59:14.518Z,1.30
2022-11-15T12:01:45.947Z,1.50
2022-11-15T12:04:18.392Z,1.20
2022-11-15T12:06:52.466Z,1.42
2022-11-15T12:09:26.404Z,1.00
2022-11-15T12:12:01.718Z,1.00
2022-11-15T12:14:38.279Z,0.90
2022-11-15T12:17:06.448Z,1.35
2022-11-15T12:19:35.957Z,1.45
2022-11-15T12:22:11.007Z,1.30
2022-11-15T12:24:43.514Z,1.15
2022-11-15T12:27:23.435Z,0.80
2022-11-15T12:29:59.078Z,0.90
2022-11-15T12:32:30.907Z,0.95
2022-11-15T12:35:00.274Z,0.98
2022-11-15T12:40:30.989Z,1.10
2022-11-15T12:43:27.539Z,1.67
2022-11-15T12:45:57.079Z,0.60
2022-11-15T12:48:50.891Z,1.25
2022-11-15T12:51:21.872Z,0.60
2022-11-15T12:53:50.007Z,0.95
2022-11-15T12:56:25.289Z,1.13
2022-11-15T12:58:56.329Z,0.70
2022-11-15T13:02:02.400Z,1.10
2022-11-15T13:04:33.009Z,0.88
2022-11-15T13:07:04.117Z,0.63
2022-11-15T13:10:02.246Z,1.15
2022-11-15T13:13:03.926Z,1.02
2022-11-15T13:15:58.618Z,0.68
2022-11-15T13:18:35.398Z,1.05
2022-11-15T13:21:27.299Z,0.93
2022-11-15T13:23:57.409Z,1.50
2022-11-15T13:26:26.387Z,1.05
2022-11-15T13:28:56.465Z,1.90
2022-11-15T13:31:31.303Z,0.95
2022-11-15T13:34:13.637Z,1.73
2022-11-15T13:36:52.487Z,1.35
2022-11-15T13:39:29.684Z,0.80
2022-11-15T13:41:58.051Z,0.70
2022-11-15T13:44:27.809Z,0.82
2022-11-15T13:47:07.309Z,1.52
2022-11-15T13:49:38.694Z,1.45
2022-11-15T13:52:09.425Z,1.40
2022-11-15T13:54:43.995Z,0.95
2022-11-15T13:57:17.010Z,1.17
2022-11-15T13:59:49.176Z,3.63
2022-11-15T14:02:20.817Z,4.70
2022-11-15T14:04:53.168Z,1.33
2022-11-15T14:07:23.611Z,3.80
2022-11-15T14:09:52.061Z,1.17
2022-11-15T14:12:25.449Z,7.18
2022-11-15T14:14:54.235Z,9.48
2022-11-15T14:17:34.794Z,4.40
2022-11-15T14:20:20.932Z,4.90
2022-11-15T14:22:54.168Z,2.15
2022-11-15T14:25:23.495Z,1.73
2022-11-15T14:28:29.490Z,5.22
2022-11-15T14:30:59.662Z,1.30
2022-11-15T14:33:31.595Z,2.85
2022-11-15T14:36:06.376Z,2.38
2022-11-15T14:38:35.907Z,5.93
2022-11-15T14:41:04.474Z,3.53
2022-11-15T14:43:32.593Z,3.75
2022-11-15T14:46:01.367Z,4.53
2022-11-15T14:48:29.988Z,2.67
2022-11-15T14:51:00.404Z,2.17
2022-11-15T14:53:28.508Z,4.43
2022-11-15T14:55:56.606Z,7.20
2022-11-15T14:58:24.726Z,4.28
2022-11-15T15:00:52.872Z,3.55
2022-11-15T15:03:21.005Z,3.40
2022-11-15T15:05:49.156Z,3.03
2022-11-15T15:08:18.688Z,3.00
2022-11-15T15:10:47.755Z,1.90
2022-11-15T15:13:20.468Z,4.10
2022-11-15T15:15:49.578Z,2.17
2022-11-15T15:18:18.400Z,5.13
2022-11-15T15:20:56.161Z,1.33
2022-11-15T15:23:31.915Z,3.65
2022-11-15T15:26:00.841Z,3.28
2022-11-15T15:28:34.285Z,3.00
2022-11-15T15:31:03.049Z,4.53
2022-11-15T15:33:31.610Z,4.05
2022-11-15T15:36:00.379Z,4.50
2022-11-15T15:38:30.979Z,3.83
2022-11-15T15:41:00.699Z,4.00
2022-11-15T15:43:28.860Z,3.40
2022-11-15T15:45:56.990Z,8.32
2022-11-15T15:48:25.146Z,3.25
2022-11-15T15:50:53.248Z,3.40
2022-11-15T15:53:21.381Z,3.88
2022-11-15T15:55:50.896Z,2.75
2022-11-15T15:58:19.248Z,3.50
2022-11-15T16:00:47.517Z,2.75
2022-11-15T16:03:15.685Z,3.60
2022-11-15T16:05:43.817Z,4.90
2022-11-15T16:08:20.110Z,4.03
2022-11-15T16:10:50.191Z,3.67
2022-11-15T16:13:18.535Z,5.38
2022-11-15T16:15:48.235Z,3.58
2022-11-15T16:20:47.478Z,4.07
2022-11-15T16:23:18.078Z,2.83
2022-11-15T16:25:50.088Z,3.58
2022-11-15T16:28:24.800Z,5.55
2022-11-15T16:31:02.646Z,3.78
2022-11-15T16:33:31.167Z,6.63
2022-11-15T16:35:59.794Z,5.60
2022-11-15T16:38:28.270Z,5.60
2022-11-15T16:40:56.474Z,4.82
2022-11-15T16:43:26.032Z,3.92
2022-11-15T16:45:54.155Z,4.47
2022-11-15T16:48:25.310Z,3.65
2022-11-15T16:50:57.097Z,5.40
2022-11-15T16:53:25.697Z,4.03
2022-11-15T16:55:54.120Z,4.30
2022-11-15T16:58:22.527Z,3.40
2022-11-15T17:00:54.368Z,2.22
2022-11-15T17:03:22.932Z,4.05
2022-11-15T17:05:51.574Z,3.50
2022-11-15T17:08:20.896Z,5.45
2022-11-15T17:10:49.458Z,3.72
2022-11-15T17:13:17.837Z,2.47
2022-11-15T17:15:46.269Z,5.97
2022-11-15T17:18:16.035Z,2.83
2022-11-15T17:20:44.546Z,10.02
2022-11-15T17:23:15.203Z,3.58
2022-11-15T17:25:44.057Z,2.97
2022-11-15T17:28:13.099Z,2.60
2022-11-15T17:30:43.299Z,2.97
2022-11-15T17:33:11.670Z,3.53
2022-11-15T17:35:41.439Z,3.92
2022-11-15T17:38:09.785Z,3.58
2022-11-15T17:40:38.196Z,4.63
2022-11-15T17:43:07.130Z,3.95
2022-11-15T17:45:35.518Z,2.75
2022-11-15T17:48:04.090Z,2.78
2022-11-15T17:50:32.527Z,2.13
2022-11-15T17:53:02.038Z,3.28
2022-11-15T17:55:30.477Z,2.95
2022-11-15T17:57:59.136Z,3.42
2022-11-15T18:00:27.587Z,3.70
2022-11-15T18:02:55.965Z,2.45
2022-11-15T18:05:24.354Z,5.85
2022-11-15T18:07:52.767Z,3.63
2022-11-15T18:10:22.536Z,3.00
2022-11-15T18:12:50.667Z,3.72
2022-11-15T18:15:20.740Z,4.20
2022-11-15T18:17:48.984Z,2.65
2022-11-15T18:20:17.958Z,4.88
2022-11-15T18:22:46.091Z,1.90
2022-11-15T18:25:15.947Z,4.22
2022-11-15T18:27:45.447Z,3.72
2022-11-15T18:30:14.108Z,3.33
2022-11-15T18:32:43.030Z,6.00
2022-11-15T18:35:11.484Z,3.05
2022-11-15T18:37:39.967Z,2.10
2022-11-15T18:40:09.530Z,4.05
2022-11-15T18:42:37.680Z,3.97
2022-11-15T18:45:08.195Z,3.92
2022-11-15T18:47:37.682Z,3.05
2022-11-15T18:50:06.320Z,2.25
2022-11-15T18:52:34.719Z,2.97
2022-11-15T18:55:03.367Z,3.42
2022-11-15T18:57:31.799Z,4.03
2022-11-15T19:00:00.183Z,4.43
2022-11-15T19:02:30.065Z,2.17
2022-11-15T19:07:26.113Z,1.75
2022-11-15T19:09:54.540Z,2.47
2022-11-15T19:12:22.966Z,3.60
2022-11-15T19:14:51.435Z,3.67
2022-11-15T19:17:20.071Z,1.90
2022-11-15T19:19:49.686Z,2.00
2022-11-15T19:22:17.777Z,3.05
2022-11-15T19:24:46.157Z,3.65
2022-11-15T19:27:14.561Z,2.55
2022-11-15T19:29:42.925Z,3.20
2022-11-15T19:32:11.506Z,7.38
2022-11-15T19:34:41.698Z,3.45
2022-11-15T19:37:11.242Z,1.58
2022-11-15T19:39:41.252Z,2.80
2022-11-15T19:42:09.886Z,2.47
2022-11-15T19:44:38.310Z,3.30
2022-11-15T19:47:09.420Z,2.20
2022-11-15T19:49:37.837Z,3.65
2022-11-15T19:52:06.520Z,2.28
2022-11-15T19:54:36.378Z,4.40
2022-11-15T19:57:04.681Z,2.35
2022-11-15T19:59:32.926Z,3.03
2022-11-15T20:02:01.022Z,4.47
2022-11-15T20:04:29.187Z,5.43
2022-11-15T20:06:57.302Z,3.85
2022-11-15T20:09:26.185Z,3.47
2022-11-15T20:11:57.425Z,6.38
2022-11-15T20:14:25.585Z,5.40
2022-11-15T20:16:54.588Z,3.65
2022-11-15T20:19:22.882Z,3.20
2022-11-15T20:21:50.980Z,4.82
2022-11-15T20:24:19.169Z,2.40
2022-11-15T20:26:47.267Z,3.17
2022-11-15T20:29:16.856Z,3.53
2022-11-15T20:31:44.997Z,2.88
2022-11-15T20:34:13.120Z,2.83
2022-11-15T20:36:41.236Z,8.18
2022-11-15T20:39:09.390Z,2.58
2022-11-15T20:41:37.470Z,2.80
2022-11-15T20:44:05.798Z,3.45
2022-11-15T20:46:35.329Z,2.42
2022-11-15T20:49:03.465Z,2.67
2022-11-15T20:51:31.564Z,2.85
2022-11-15T20:53:59.684Z,3.72
2022-11-15T20:56:27.774Z,4.05
2022-11-15T20:58:56.625Z,3.08
2022-11-15T21:01:25.564Z,2.97
2022-11-15T21:03:56.551Z,3.70
2022-11-15T21:06:26.075Z,4.07
2022-11-15T21:09:12.549Z,3.60
2022-11-15T21:11:58.592Z,3.38
2022-11-15T21:14:26.730Z,4.88
2022-11-15T21:16:54.818Z,4.50
2022-11-15T21:19:30.128Z,3.25
2022-11-15T21:22:00.899Z,2.80
2022-11-15T21:24:29.087Z,3.00
2022-11-15T21:26:57.562Z,2.03
2022-11-15T21:29:26.141Z,2.15
2022-11-15T21:31:54.532Z,3.83
2022-11-15T21:34:24.082Z,4.57
2022-11-15T21:36:52.637Z,8.82
2022-11-15T21:39:20.781Z,2.58
2022-11-15T21:41:49.121Z,2.88
2022-11-15T21:44:17.533Z,2.50
2022-11-15T21:46:45.612Z,2.88
2022-11-15T21:49:13.752Z,3.63
2022-11-15T21:51:43.574Z,1.90
2022-11-15T21:54:11.810Z,3.90
2022-11-15T21:56:39.921Z,2.55
2022-11-15T21:59:09.230Z,4.10
2022-11-15T22:01:54.518Z,3.22
2022-11-15T22:04:24.114Z,1.98
2022-11-15T22:06:53.620Z,1.90
2022-11-15T22:09:21.780Z,2.97
2022-11-15T22:11:49.903Z,1.58
2022-11-15T22:14:18.507Z,1.90
2022-11-15T22:16:46.622Z,3.38
2022-11-15T22:19:14.779Z,2.60
2022-11-15T22:21:43.620Z,2.88
2022-11-15T22:24:13.099Z,2.13
2022-11-15T22:26:41.184Z,2.33
2022-11-15T22:29:09.337Z,2.58
2022-11-15T22:31:37.442Z,2.58
2022-11-15T22:34:05.609Z,3.00
2022-11-15T22:36:52.103Z,1.75
2022-11-15T22:39:23.165Z,3.25
2022-11-15T22:41:51.266Z,2.08
2022-11-15T22:44:19.380Z,2.45
2022-11-15T22:46:47.762Z,1.17
2022-11-15T22:49:15.871Z,2.38
2022-11-15T22:51:44.254Z,1.60
2022-11-15T22:54:12.386Z,1.35
2022-11-15T22:56:41.855Z,2.75
2022-11-15T22:59:09.936Z,1.50
2022-11-15T23:01:38.075Z,2.50
2022-11-15T23:04:06.388Z,1.65
2022-11-15T23:06:34.559Z,1.92
2022-11-15T23:09:02.663Z,1.88
2022-11-15T23:11:48.227Z,1.60
2022-11-15T23:14:17.685Z,3.92
2022-11-15T23:16:45.796Z,1.92
2022-11-15T23:19:14.647Z,2.60
2022-11-15T23:22:01.963Z,4.00
2022-11-15T23:24:30.501Z,3.88
2022-11-15T23:27:02.523Z,2.60
2022-11-15T23:29:32.050Z,4.10
2022-11-15T23:32:17.761Z,2.72
2022-11-15T23:34:47.037Z,3.35
2022-11-15T23:37:16.513Z,3.70
2022-11-15T23:39:44.679Z,2.97
2022-11-15T23:42:20.087Z,3.95
2022-11-15T23:44:50.755Z,3.38
2022-11-15T23:47:19.332Z,3.22
2022-11-15T23:49:47.490Z,1.85
2022-11-15T23:52:16.648Z,3.53
2022-11-15T23:54:44.838Z,1.60
2022-11-15T23:57:12.985Z,4.85
2022-11-15T23:59:41.243Z,3.42
